Time;durP1;ratioP1;P1;durP2;ratioP2;P2;SDS_P1;SDS_P2;PMS_P1;PMS_P2;Temp;Humidity;BMP_temperature;BMP_pressure;BME280_temperature;BME280_humidity;BME280_pressure;Samples;Min_cycle;Max_cycle;Signal;HPM_P1;HPM_P2
2022/11/08 00:03:31;;;;;;;13.40;2.92;;;12.30;99.90;;;;;;6213934;23;20021;-87
2022/11/08 00:14:10;;;;;;;11.75;2.83;;;12.30;99.90;;;;;;6215994;23;20012;-87
2022/11/08 00:16:36;;;;;;;16.17;3.63;;;12.30;99.90;;;;;;6216805;23;20362;-86
2022/11/08 00:19:01;;;;;;;14.50;3.47;;;12.40;99.90;;;;;;6189841;23;20353;-86
2022/11/08 00:21:27;;;;;;;10.88;2.83;;;12.40;99.90;;;;;;6189679;23;20074;-87
2022/11/08 00:23:53;;;;;;;12.38;2.92;;;12.40;99.90;;;;;;6215956;23;20017;-86
2022/11/08 00:26:19;;;;;;;15.02;3.22;;;12.40;99.90;;;;;;6215707;23;20016;-87
2022/11/08 00:28:45;;;;;;;9.95;2.88;;;12.40;99.90;;;;;;6216811;23;20016;-86
2022/11/08 00:31:10;;;;;;;12.82;2.95;;;12.40;99.90;;;;;;6189291;23;20017;-87
2022/11/08 00:33:36;;;;;;;10.73;2.83;;;12.40;99.90;;;;;;6215841;23;20016;-86
2022/11/08 00:36:02;;;;;;;13.18;3.05;;;12.40;99.90;;;;;;6189462;23;20017;-87
2022/11/08 00:38:28;;;;;;;14.63;2.72;;;12.40;99.90;;;;;;6216235;23;20043;-86
2022/11/08 00:40:54;;;;;;;13.00;2.72;;;12.40;99.90;;;;;;6188593;23;20515;-86
2022/11/08 00:43:20;;;;;;;10.40;2.65;;;12.40;99.90;;;;;;6189508;23;20013;-87
2022/11/08 00:45:46;;;;;;;18.02;2.67;;;12.40;99.90;;;;;;6216249;23;20005;-86
2022/11/08 00:48:12;;;;;;;13.07;2.80;;;12.40;99.90;;;;;;6215933;23;20067;-87
2022/11/08 00:50:38;;;;;;;9.38;2.90;;;12.40;99.90;;;;;;6189298;23;20402;-86
2022/11/08 00:53:04;;;;;;;17.65;2.88;;;12.30;99.90;;;;;;6189653;23;20017;-86
2022/11/08 00:55:30;;;;;;;11.75;2.55;;;12.30;99.90;;;;;;6215201;23;20009;-87
2022/11/08 00:57:55;;;;;;;12.20;2.70;;;12.30;99.90;;;;;;6189146;23;20013;-86
2022/11/08 01:00:21;;;;;;;10.95;3.20;;;12.30;99.90;;;;;;6188940;23;20023;-86
2022/11/08 01:02:47;;;;;;;10.77;2.60;;;12.30;99.90;;;;;;6163867;23;20337;-86
2022/11/08 01:05:12;;;;;;;14.68;3.20;;;12.30;99.90;;;;;;6215978;23;20012;-86
2022/11/08 01:07:38;;;;;;;12.55;2.65;;;12.30;99.90;;;;;;6217708;23;20023;-86
2022/11/08 01:10:05;;;;;;;12.95;2.67;;;12.20;99.90;;;;;;6189672;23;20114;-86
2022/11/08 01:12:32;;;;;;;19.95;2.85;;;12.20;99.90;;;;;;6189777;23;20028;-86
2022/11/08 01:14:58;;;;;;;11.95;2.70;;;12.20;99.90;;;;;;6189714;23;20116;-86
2022/11/08 01:17:24;;;;;;;9.50;2.55;;;12.20;99.90;;;;;;6215730;23;20013;-86
2022/11/08 01:19:49;;;;;;;11.60;2.30;;;12.50;99.90;;;;;;6187949;23;20445;-86
2022/11/08 01:22:15;;;;;;;13.27;2.50;;;12.30;99.90;;;;;;6188145;23;20052;-86
2022/11/08 01:24:41;;;;;;;9.73;2.30;;;12.10;99.90;;;;;;6189146;23;20020;-85
2022/11/08 01:27:06;;;;;;;11.07;2.40;;;12.00;99.90;;;;;;6215488;23;20018;-86
2022/11/08 01:29:32;;;;;;;8.93;2.55;;;12.00;99.90;;;;;;6215114;23;20044;-86
2022/11/08 01:31:58;;;;;;;14.52;2.80;;;12.00;99.90;;;;;;6188125;23;20048;-86
2022/11/08 01:34:23;;;;;;;15.50;2.78;;;11.90;99.90;;;;;;6189065;23;20035;-86
2022/11/08 01:36:49;;;;;;;15.43;3.20;;;11.90;99.90;;;;;;6214996;23;20108;-86
2022/11/08 01:39:15;;;;;;;11.50;2.92;;;11.80;99.90;;;;;;6215027;23;20050;-86
2022/11/08 01:41:41;;;;;;;10.00;2.60;;;11.80;99.90;;;;;;6188781;23;20122;-86
2022/11/08 01:44:15;;;;;;;11.55;3.40;;;11.80;99.90;;;;;;6212424;23;20662;-86
2022/11/08 01:46:44;;;;;;;10.25;2.45;;;11.70;99.90;;;;;;6188668;23;20515;-86
2022/11/08 01:49:31;;;;;;;11.23;2.22;;;11.80;99.90;;;;;;6188213;23;20019;-85
2022/11/08 01:52:12;;;;;;;10.05;2.25;;;11.70;99.90;;;;;;6187787;23;20012;-86
2022/11/08 01:54:57;;;;;;;8.88;2.55;;;11.80;99.90;;;;;;6164205;23;20044;-86
2022/11/08 01:57:37;;;;;;;13.88;2.38;;;11.80;99.90;;;;;;6188497;23;20011;-85
2022/11/08 02:00:07;;;;;;;9.93;2.38;;;11.80;99.90;;;;;;6187905;23;20013;-86
2022/11/08 02:02:34;;;;;;;9.23;2.40;;;11.80;99.90;;;;;;6163381;23;20071;-85
2022/11/08 02:05:01;;;;;;;14.27;2.40;;;11.80;99.90;;;;;;6215059;23;20048;-86
2022/11/08 02:07:29;;;;;;;15.55;3.05;;;11.80;99.90;;;;;;6187601;23;20017;-86
2022/11/08 02:09:56;;;;;;;13.55;2.40;;;11.80;99.90;;;;;;6188478;23;20527;-86
2022/11/08 02:12:23;;;;;;;10.80;2.63;;;11.80;99.90;;;;;;6163627;23;20480;-85
2022/11/08 02:14:49;;;;;;;9.32;2.13;;;11.80;99.90;;;;;;6215011;23;20087;-85
2022/11/08 02:17:15;;;;;;;11.00;2.42;;;11.80;99.90;;;;;;6187118;23;20048;-86
2022/11/08 02:19:44;;;;;;;14.00;2.58;;;11.70;99.90;;;;;;6187884;23;20012;-86
2022/11/08 02:22:34;;;;;;;12.45;2.85;;;11.60;99.90;;;;;;6214506;23;20021;-86
2022/11/08 02:25:00;;;;;;;13.63;2.70;;;11.60;99.90;;;;;;6187567;23;20020;-85
2022/11/08 02:27:25;;;;;;;16.30;2.72;;;11.60;99.90;;;;;;6187034;23;20020;-86
2022/11/08 02:29:55;;;;;;;11.50;2.70;;;11.60;99.90;;;;;;6188079;23;20350;-86
2022/11/08 02:32:21;;;;;;;13.52;2.95;;;11.70;99.90;;;;;;6187434;23;20043;-85
2022/11/08 02:34:58;;;;;;;11.05;2.50;;;11.60;99.90;;;;;;6214097;23;20087;-85
2022/11/08 02:37:25;;;;;;;11.40;2.40;;;11.50;99.90;;;;;;6162901;23;20017;-84
2022/11/08 02:39:51;;;;;;;13.60;2.80;;;11.50;99.90;;;;;;6214180;23;20445;-86
2022/11/08 02:42:18;;;;;;;11.90;2.67;;;11.50;99.90;;;;;;6187491;23;20074;-86
2022/11/08 02:44:45;;;;;;;11.65;2.75;;;11.50;99.90;;;;;;6162381;23;20098;-86
2022/11/08 02:47:11;;;;;;;9.65;2.85;;;11.40;99.90;;;;;;6187756;23;20012;-85
2022/11/08 02:49:37;;;;;;;11.93;2.65;;;11.40;99.90;;;;;;6187325;23;20083;-85
2022/11/08 02:52:03;;;;;;;12.82;2.88;;;11.40;99.90;;;;;;6187625;23;20067;-85
2022/11/08 02:54:29;;;;;;;10.55;2.78;;;11.30;99.90;;;;;;6187231;23;20023;-85
2022/11/08 02:56:54;;;;;;;12.40;2.45;;;11.30;99.90;;;;;;6187385;23;20087;-86
2022/11/08 02:59:20;;;;;;;9.40;2.65;;;11.20;99.90;;;;;;6186479;23;20019;-85
2022/11/08 03:01:48;;;;;;;13.90;2.63;;;11.30;99.90;;;;;;6186978;23;20017;-85
2022/11/08 03:04:14;;;;;;;14.70;2.92;;;11.30;99.90;;;;;;6186527;23;20016;-86
2022/11/08 03:06:40;;;;;;;10.15;2.85;;;11.20;99.90;;;;;;6187165;23;20019;-86
2022/11/08 03:09:06;;;;;;;10.85;2.75;;;11.20;99.90;;;;;;6187889;23;20019;-86
2022/11/08 03:11:31;;;;;;;12.30;2.80;;;11.20;99.90;;;;;;6187125;23;20020;-86
2022/11/08 03:13:57;;;;;;;9.98;2.47;;;11.20;99.90;;;;;;6215150;23;20066;-86
2022/11/08 03:16:23;;;;;;;14.32;2.60;;;11.20;99.90;;;;;;6214743;23;20008;-86
2022/11/08 03:18:48;;;;;;;12.40;2.38;;;11.20;99.90;;;;;;6213336;23;20016;-86
2022/11/08 03:21:14;;;;;;;11.25;2.53;;;11.20;99.90;;;;;;6214360;23;20013;-85
2022/11/08 03:23:40;;;;;;;11.50;2.47;;;11.20;99.90;;;;;;6213947;23;20024;-85
2022/11/08 03:26:05;;;;;;;8.20;2.75;;;11.20;99.90;;;;;;6213535;23;20058;-85
2022/11/08 03:28:31;;;;;;;9.60;2.85;;;11.20;99.90;;;;;;6187235;23;20023;-86
2022/11/08 03:30:57;;;;;;;11.23;3.00;;;11.20;99.90;;;;;;6186248;23;20016;-85
2022/11/08 03:33:23;;;;;;;9.57;2.58;;;11.20;99.90;;;;;;6213830;23;20013;-86
2022/11/08 03:35:49;;;;;;;8.07;2.88;;;11.10;99.90;;;;;;6187191;23;20014;-85
2022/11/08 03:38:15;;;;;;;10.38;2.47;;;11.40;99.90;;;;;;6185988;23;20016;-86
2022/11/08 03:40:42;;;;;;;11.45;2.97;;;11.20;99.90;;;;;;6186773;23;20028;-84
2022/11/08 03:43:08;;;;;;;8.57;3.00;;;11.10;99.90;;;;;;6186708;23;20021;-85
2022/11/08 03:45:33;;;;;;;9.88;3.05;;;11.10;99.90;;;;;;6186620;23;20035;-86
2022/11/08 03:47:59;;;;;;;12.48;2.63;;;11.10;99.90;;;;;;6161377;23;20046;-85
2022/11/08 03:50:24;;;;;;;10.02;2.33;;;11.10;99.90;;;;;;6187368;23;20017;-85
2022/11/08 03:52:53;;;;;;;12.38;2.97;;;11.10;99.90;;;;;;6213403;23;20044;-85
2022/11/08 03:55:20;;;;;;;10.68;2.60;;;11.00;99.90;;;;;;6187118;23;20020;-85
2022/11/08 03:57:48;;;;;;;14.85;3.00;;;11.10;99.90;;;;;;6187218;23;20009;-85
2022/11/08 04:00:17;;;;;;;9.18;2.80;;;11.00;99.90;;;;;;6186742;23;20012;-85
2022/11/08 04:02:43;;;;;;;11.82;3.45;;;11.00;99.90;;;;;;6212496;23;20472;-85
2022/11/08 04:05:10;;;;;;;7.25;2.40;;;11.40;99.90;;;;;;6214009;23;20021;-85
2022/11/08 04:07:36;;;;;;;7.38;2.53;;;10.70;99.90;;;;;;6213213;23;20065;-85
2022/11/08 04:10:07;;;;;;;9.75;2.90;;;11.00;99.90;;;;;;6162282;23;20714;-86
2022/11/08 04:15:20;;;;;;;10.85;2.97;;;10.90;99.90;;;;;;6212686;23;20023;-83
2022/11/08 04:23:20;;;;;;;10.88;2.40;;;10.90;99.90;;;;;;6214126;23;20089;-85
2022/11/08 04:25:56;;;;;;;11.43;2.63;;;10.90;99.90;;;;;;6161323;23;20028;-85
2022/11/08 04:28:26;;;;;;;12.63;3.28;;;10.90;99.90;;;;;;6186954;23;20020;-84
2022/11/08 04:30:57;;;;;;;13.35;3.10;;;10.80;99.90;;;;;;6212489;23;20048;-85
2022/11/08 04:33:23;;;;;;;9.88;2.65;;;10.80;99.90;;;;;;6185751;23;20386;-86
2022/11/08 04:35:50;;;;;;;11.68;3.17;;;10.80;99.90;;;;;;6212664;23;20048;-85
2022/11/08 04:38:15;;;;;;;10.50;2.50;;;10.90;99.90;;;;;;6185961;23;20016;-86
2022/11/08 04:40:41;;;;;;;9.57;3.35;;;10.70;99.90;;;;;;6213153;23;20337;-85
2022/11/08 04:43:07;;;;;;;14.32;2.97;;;10.70;99.90;;;;;;6213126;23;20051;-84
2022/11/08 04:45:33;;;;;;;10.95;3.40;;;10.70;99.90;;;;;;6184651;23;20020;-84
2022/11/08 04:47:58;;;;;;;8.40;2.40;;;10.70;99.90;;;;;;6161447;23;20016;-86
2022/11/08 04:50:24;;;;;;;11.27;2.63;;;10.70;99.90;;;;;;6186494;23;20016;-85
2022/11/08 04:52:51;;;;;;;7.95;2.50;;;10.70;99.90;;;;;;6186058;23;20008;-85
2022/11/08 04:55:18;;;;;;;11.55;3.70;;;10.80;99.90;;;;;;6213294;23;20391;-85
2022/11/08 04:57:44;;;;;;;9.00;2.58;;;10.80;99.90;;;;;;6187119;23;20019;-85
2022/11/08 05:00:11;;;;;;;9.02;2.60;;;10.90;99.90;;;;;;6214702;23;20441;-85
2022/11/08 05:02:36;;;;;;;9.18;2.25;;;10.90;99.90;;;;;;6214760;23;20012;-85
2022/11/08 05:05:02;;;;;;;6.80;2.25;;;10.90;99.90;;;;;;6163675;23;20062;-85
2022/11/08 05:07:28;;;;;;;10.07;2.33;;;10.90;99.90;;;;;;6187639;23;20023;-85
2022/11/08 05:09:55;;;;;;;12.90;2.17;;;10.90;99.90;;;;;;6188164;23;20066;-85
2022/11/08 05:12:20;;;;;;;10.15;2.42;;;10.80;99.90;;;;;;6214932;23;20009;-85
2022/11/08 05:14:46;;;;;;;10.70;2.15;;;10.80;99.90;;;;;;6187182;23;20159;-85
2022/11/08 05:17:12;;;;;;;9.95;2.00;;;10.80;99.90;;;;;;6215030;23;20453;-85
2022/11/08 05:25:06;;;;;;;9.45;2.30;;;10.70;99.90;;;;;;6188457;23;20024;-85
2022/11/08 05:27:33;;;;;;;9.30;2.20;;;10.70;99.90;;;;;;6188588;23;20062;-85
2022/11/08 05:29:58;;;;;;;12.80;2.38;;;10.70;99.90;;;;;;6214659;23;20082;-84
2022/11/08 05:32:24;;;;;;;7.72;2.00;;;10.70;99.90;;;;;;6188506;23;20012;-85
2022/11/08 05:34:50;;;;;;;9.98;2.40;;;10.70;99.90;;;;;;6188083;23;20013;-85
2022/11/08 05:37:16;;;;;;;7.13;1.98;;;10.70;99.90;;;;;;6187371;23;20070;-85
2022/11/08 05:39:41;;;;;;;9.43;2.20;;;10.70;99.90;;;;;;6214327;23;20072;-85
2022/11/08 05:42:07;;;;;;;6.13;2.03;;;10.70;99.90;;;;;;6187143;23;20143;-85
2022/11/08 05:44:33;;;;;;;9.70;2.47;;;10.60;99.90;;;;;;6161651;23;20013;-85
2022/11/08 05:46:58;;;;;;;10.30;2.50;;;10.70;99.90;;;;;;6187560;23;20020;-85
2022/11/08 05:49:24;;;;;;;7.85;2.00;;;10.70;99.90;;;;;;6213850;23;20099;-85
2022/11/08 05:51:49;;;;;;;8.63;2.17;;;10.70;99.90;;;;;;6212202;23;20047;-85
2022/11/08 05:54:15;;;;;;;9.85;1.75;;;10.60;99.90;;;;;;6213562;23;20035;-85
2022/11/08 05:56:41;;;;;;;10.43;2.70;;;10.60;99.90;;;;;;6213393;23;20095;-85
2022/11/08 05:59:06;;;;;;;9.25;2.20;;;10.60;99.90;;;;;;6160394;23;20044;-85
2022/11/08 06:01:32;;;;;;;6.32;1.85;;;10.60;99.90;;;;;;6161393;23;20027;-85
2022/11/08 06:03:58;;;;;;;10.20;2.50;;;10.60;99.90;;;;;;6187243;23;20023;-85
2022/11/08 06:06:24;;;;;;;6.95;1.83;;;10.50;99.90;;;;;;6214445;23;20023;-85
2022/11/08 06:08:50;;;;;;;8.00;2.15;;;10.50;99.90;;;;;;6187213;23;20023;-84
2022/11/08 06:11:22;;;;;;;9.63;2.60;;;10.50;99.90;;;;;;6186998;23;20343;-85
2022/11/08 06:13:48;;;;;;;6.25;1.95;;;10.40;99.90;;;;;;6216207;23;20012;-85
2022/11/08 06:16:16;;;;;;;8.68;2.00;;;10.40;99.90;;;;;;6167101;23;20027;-87
2022/11/08 06:18:42;;;;;;;10.00;2.08;;;10.40;99.90;;;;;;6191463;23;20040;-88
2022/11/08 06:21:11;;;;;;;9.27;2.10;;;10.40;99.90;;;;;;6218165;23;20016;-90
2022/11/08 06:23:37;;;;;;;8.73;2.42;;;10.30;99.90;;;;;;6219011;23;20021;-87
2022/11/08 06:26:02;;;;;;;8.45;1.80;;;10.30;99.90;;;;;;6218464;23;20074;-87
2022/11/08 06:28:28;;;;;;;8.23;2.20;;;10.30;99.90;;;;;;6190995;23;20027;-87
2022/11/08 06:30:56;;;;;;;9.40;2.00;;;10.30;99.90;;;;;;6192759;23;20028;-87
2022/11/08 06:33:22;;;;;;;7.60;2.30;;;10.40;99.90;;;;;;6219555;23;20024;-87
2022/11/08 06:35:48;;;;;;;8.27;2.08;;;10.20;99.90;;;;;;6191376;23;20453;-87
2022/11/08 06:38:13;;;;;;;8.05;2.28;;;10.20;99.90;;;;;;6218687;23;20310;-88
2022/11/08 06:40:39;;;;;;;8.50;2.28;;;10.30;99.90;;;;;;6190873;23;20017;-87
2022/11/08 06:43:05;;;;;;;8.90;2.22;;;10.30;99.90;;;;;;6190619;23;20017;-87
2022/11/08 06:45:31;;;;;;;12.70;2.50;;;10.20;99.90;;;;;;6190384;23;20083;-87
2022/11/08 06:47:59;;;;;;;7.93;2.17;;;10.30;99.90;;;;;;6189527;23;20023;-87
2022/11/08 06:50:25;;;;;;;11.20;2.28;;;10.30;99.90;;;;;;6190717;23;20047;-85
2022/11/08 06:52:59;;;;;;;4.85;1.80;;;10.30;99.90;;;;;;6185571;23;20009;-86
2022/11/08 06:55:25;;;;;;;9.18;2.30;;;10.30;99.90;;;;;;6213208;23;20021;-85
2022/11/08 06:57:51;;;;;;;9.85;2.60;;;10.30;99.90;;;;;;6184400;23;20418;-85
2022/11/08 07:00:17;;;;;;;10.60;3.13;;;10.30;99.90;;;;;;6186166;23;20013;-85
2022/11/08 07:02:43;;;;;;;12.10;2.72;;;10.30;99.90;;;;;;6185535;23;20024;-84
2022/11/08 07:05:10;;;;;;;10.30;3.03;;;10.40;99.90;;;;;;6211954;23;20013;-85
2022/11/08 07:07:35;;;;;;;8.23;2.70;;;10.30;99.90;;;;;;6185652;23;20031;-84
2022/11/08 07:10:01;;;;;;;14.25;2.85;;;10.40;99.90;;;;;;6212030;23;20016;-85
2022/11/08 07:12:27;;;;;;;9.82;2.72;;;10.40;99.90;;;;;;6184444;23;20012;-86
2022/11/08 07:14:53;;;;;;;6.80;2.67;;;10.40;99.90;;;;;;6163688;23;20047;-89
2022/11/08 07:17:18;;;;;;;14.02;2.92;;;10.40;99.90;;;;;;6212878;23;20016;-85
2022/11/08 07:19:44;;;;;;;7.57;2.63;;;10.50;99.90;;;;;;6213654;23;20042;-88
2022/11/08 07:22:09;;;;;;;8.60;2.65;;;10.50;99.90;;;;;;6191794;23;20016;-86
2022/11/08 07:24:35;;;;;;;12.60;2.95;;;10.50;99.90;;;;;;6216199;23;20068;-86
2022/11/08 07:27:01;;;;;;;8.18;2.67;;;10.60;99.90;;;;;;6188407;23;20459;-86
2022/11/08 07:29:26;;;;;;;7.20;2.08;;;10.60;99.90;;;;;;6189376;23;20020;-86
2022/11/08 07:31:52;;;;;;;7.72;2.10;;;10.70;99.90;;;;;;6214986;23;20019;-86
2022/11/08 07:34:18;;;;;;;10.07;2.30;;;10.70;99.90;;;;;;6187589;23;20024;-86
2022/11/08 07:36:43;;;;;;;10.73;2.85;;;10.70;99.90;;;;;;6188314;23;20067;-86
2022/11/08 07:39:10;;;;;;;8.80;2.60;;;10.80;99.90;;;;;;6187527;23;20070;-86
2022/11/08 07:41:35;;;;;;;8.05;2.75;;;10.90;99.90;;;;;;6214787;23;20091;-85
2022/11/08 07:44:01;;;;;;;7.60;2.30;;;10.90;99.90;;;;;;6214478;23;20023;-86
2022/11/08 07:46:27;;;;;;;8.45;2.33;;;11.00;99.90;;;;;;6214291;23;20020;-86
2022/11/08 07:48:52;;;;;;;10.30;2.40;;;11.00;99.90;;;;;;6187840;23;20026;-86
2022/11/08 07:51:18;;;;;;;8.73;2.08;;;11.00;99.90;;;;;;6214452;23;20021;-86
2022/11/08 07:53:43;;;;;;;6.45;1.80;;;11.20;99.90;;;;;;6187072;23;20045;-85
2022/11/08 07:56:09;;;;;;;7.30;2.13;;;11.10;99.90;;;;;;6214608;23;20047;-86
2022/11/08 07:58:35;;;;;;;7.45;2.35;;;11.20;99.90;;;;;;6215406;23;20055;-86
2022/11/08 08:01:02;;;;;;;8.25;2.55;;;11.20;99.90;;;;;;6214401;23;20091;-86
2022/11/08 08:03:28;;;;;;;7.22;1.90;;;11.20;99.90;;;;;;6214455;23;20112;-86
2022/11/08 08:05:54;;;;;;;7.47;2.08;;;11.30;99.90;;;;;;6187632;23;20023;-86
2022/11/08 08:08:20;;;;;;;10.02;2.55;;;11.60;99.90;;;;;;6186536;23;20047;-86
2022/11/08 08:10:46;;;;;;;9.60;1.95;;;11.90;99.90;;;;;;6187539;23;20449;-86
2022/11/08 08:13:12;;;;;;;7.03;2.00;;;11.40;99.90;;;;;;6214195;23;20096;-86
2022/11/08 08:15:38;;;;;;;10.35;2.08;;;11.40;99.90;;;;;;6188442;23;20017;-86
2022/11/08 08:18:06;;;;;;;6.78;1.77;;;11.40;99.90;;;;;;6162580;23;20020;-87
2022/11/08 08:20:32;;;;;;;10.85;2.30;;;11.40;99.90;;;;;;6187693;23;20107;-86
2022/11/08 08:22:58;;;;;;;9.07;2.42;;;11.40;99.90;;;;;;6186785;23;20024;-86
2022/11/08 08:25:24;;;;;;;4.57;1.67;;;11.40;99.90;;;;;;6214008;23;20013;-86
2022/11/08 08:27:52;;;;;;;5.15;1.80;;;11.50;99.90;;;;;;6214041;23;20374;-86
2022/11/08 08:30:18;;;;;;;4.55;1.73;;;11.50;99.90;;;;;;6162621;23;20028;-86
2022/11/08 08:32:44;;;;;;;8.00;1.88;;;11.50;99.90;;;;;;6189075;23;20013;-85
2022/11/08 08:35:11;;;;;;;7.88;1.73;;;11.60;99.90;;;;;;6189921;23;20017;-86
2022/11/08 08:37:37;;;;;;;5.68;1.38;;;11.60;99.90;;;;;;6189196;23;20467;-86
2022/11/08 08:40:03;;;;;;;6.25;1.50;;;11.70;99.90;;;;;;6189049;23;20074;-86
2022/11/08 08:42:31;;;;;;;6.47;1.98;;;11.70;99.90;;;;;;6188476;23;20017;-86
2022/11/08 08:44:56;;;;;;;4.65;1.70;;;11.70;99.90;;;;;;6164461;23;20051;-86
2022/11/08 08:47:22;;;;;;;3.35;1.30;;;11.70;99.90;;;;;;6189856;23;20021;-86
2022/11/08 08:49:47;;;;;;;5.55;1.50;;;11.80;99.90;;;;;;6164374;23;20047;-86
2022/11/08 08:52:13;;;;;;;5.68;1.55;;;11.90;99.90;;;;;;6163981;23;20035;-86
2022/11/08 08:54:39;;;;;;;4.93;1.70;;;11.90;99.90;;;;;;6189676;23;20029;-86
2022/11/08 08:57:04;;;;;;;4.63;1.48;;;12.00;99.90;;;;;;6189059;23;20493;-86
2022/11/08 08:59:30;;;;;;;3.88;1.42;;;12.00;99.90;;;;;;6188994;23;20043;-86
2022/11/08 09:01:56;;;;;;;5.65;1.90;;;12.10;99.90;;;;;;6189987;23;20017;-85
2022/11/08 09:04:21;;;;;;;2.88;1.20;;;12.20;99.90;;;;;;6188983;23;20024;-85
2022/11/08 09:06:47;;;;;;;6.45;1.50;;;12.20;99.90;;;;;;6215120;23;20066;-86
2022/11/08 09:09:13;;;;;;;7.90;1.67;;;12.30;99.90;;;;;;6188911;23;20071;-86
2022/11/08 09:11:38;;;;;;;12.77;2.28;;;12.30;99.90;;;;;;6214560;23;20341;-86
2022/11/08 09:14:04;;;;;;;5.68;1.40;;;12.40;99.90;;;;;;6215044;23;20016;-86
2022/11/08 09:16:30;;;;;;;7.57;1.40;;;12.40;99.90;;;;;;6188918;23;20055;-86
2022/11/08 09:18:55;;;;;;;4.32;1.58;;;12.50;99.90;;;;;;6214502;23;20012;-86
2022/11/08 09:21:21;;;;;;;4.70;1.58;;;12.60;99.90;;;;;;6188051;23;20025;-86
2022/11/08 09:23:46;;;;;;;5.05;1.48;;;12.60;99.90;;;;;;6188752;23;20021;-85
2022/11/08 09:26:12;;;;;;;3.50;1.30;;;12.60;99.90;;;;;;6187989;23;20008;-86
2022/11/08 09:28:38;;;;;;;8.02;1.75;;;12.70;99.90;;;;;;6163796;23;20020;-86
2022/11/08 09:31:09;;;;;;;3.58;1.40;;;12.70;99.90;;;;;;6188819;23;20067;-85
2022/11/08 09:33:35;;;;;;;5.72;1.40;;;12.90;99.90;;;;;;6188986;23;20013;-86
2022/11/08 09:36:03;;;;;;;4.53;1.65;;;12.90;99.90;;;;;;6215401;23;20020;-85
2022/11/08 09:38:28;;;;;;;4.03;1.52;;;13.00;99.90;;;;;;6214915;23;20073;-85
2022/11/08 09:41:03;;;;;;;5.28;1.40;;;13.10;99.90;;;;;;6163362;23;20021;-86
2022/11/08 09:44:02;;;;;;;4.30;1.30;;;13.10;99.90;;;;;;6188578;23;20341;-85
2022/11/08 09:46:38;;;;;;;4.78;1.50;;;13.20;99.90;;;;;;6164274;23;20063;-85
2022/11/08 09:49:10;;;;;;;5.47;1.38;;;13.30;99.90;;;;;;6214382;23;20425;-85
2022/11/08 09:51:37;;;;;;;5.57;1.50;;;13.30;99.90;;;;;;6188728;23;20044;-86
2022/11/08 09:54:07;;;;;;;5.63;1.60;;;13.40;99.90;;;;;;6187478;23;20016;-86
2022/11/08 09:56:37;;;;;;;6.07;1.58;;;13.40;99.90;;;;;;6213496;23;20020;-86
2022/11/08 09:59:20;;;;;;;5.65;1.40;;;13.70;99.90;;;;;;6213649;23;20532;-86
2022/11/08 10:01:48;;;;;;;6.40;1.63;;;13.50;99.90;;;;;;6214055;23;20013;-86
2022/11/08 10:04:16;;;;;;;3.53;1.50;;;13.50;99.90;;;;;;6186575;23;20052;-85
2022/11/08 10:06:54;;;;;;;6.47;1.45;;;13.50;99.90;;;;;;6213879;23;20016;-86
2022/11/08 10:09:50;;;;;;;4.35;2.05;;;13.50;99.90;;;;;;6186196;23;20406;-86
2022/11/08 10:12:37;;;;;;;5.88;1.40;;;13.60;99.90;;;;;;6161571;23;20750;-85
2022/11/08 10:15:28;;;;;;;6.13;1.88;;;13.60;99.90;;;;;;6186964;23;20075;-85
2022/11/08 10:18:10;;;;;;;4.80;1.35;;;13.70;99.90;;;;;;6186696;23;20048;-86
2022/11/08 10:21:01;;;;;;;7.90;1.83;;;13.70;99.90;;;;;;6212659;23;20012;-85
2022/11/08 10:23:30;;;;;;;7.10;1.80;;;13.70;99.90;;;;;;6213572;23;20044;-85
2022/11/08 10:26:13;;;;;;;5.78;1.35;;;13.80;99.90;;;;;;6161844;23;20075;-85
2022/11/08 10:28:57;;;;;;;5.45;1.55;;;13.80;99.90;;;;;;6186578;23;20020;-86
2022/11/08 10:31:27;;;;;;;3.92;1.48;;;13.80;99.90;;;;;;6186217;23;20095;-85
2022/11/08 10:33:55;;;;;;;2.38;1.45;;;13.80;99.90;;;;;;6213177;23;20080;-85
2022/11/08 10:36:45;;;;;;;6.43;1.40;;;13.80;99.90;;;;;;6212976;23;20054;-85
2022/11/08 10:39:20;;;;;;;8.68;1.65;;;13.90;99.90;;;;;;6185778;23;20012;-85
2022/11/08 10:42:07;;;;;;;6.50;1.60;;;13.90;99.90;;;;;;6161582;23;20027;-85
2022/11/08 10:44:34;;;;;;;5.43;1.67;;;14.00;99.90;;;;;;6213807;23;20025;-85
2022/11/08 10:47:04;;;;;;;5.72;1.58;;;14.00;99.90;;;;;;6212903;23;20016;-83
2022/11/08 10:49:39;;;;;;;3.58;1.45;;;14.20;99.90;;;;;;6186118;23;20052;-83
2022/11/08 10:52:11;;;;;;;7.13;1.45;;;14.00;99.90;;;;;;6186363;23;20381;-83
2022/11/08 10:54:42;;;;;;;4.72;1.60;;;13.90;99.90;;;;;;6186720;23;20024;-83
2022/11/08 10:57:09;;;;;;;7.43;1.30;;;14.00;99.90;;;;;;6186253;23;20088;-83
2022/11/08 10:59:35;;;;;;;6.22;1.52;;;13.90;99.90;;;;;;6186461;23;20008;-83
2022/11/08 11:02:02;;;;;;;5.32;1.77;;;13.90;99.90;;;;;;6212759;23;20017;-84
2022/11/08 11:04:31;;;;;;;5.55;1.58;;;13.90;99.90;;;;;;6185553;23;20016;-83
2022/11/08 11:07:01;;;;;;;6.50;1.83;;;13.90;99.90;;;;;;6185937;23;20499;-83
2022/11/08 11:09:27;;;;;;;6.43;1.63;;;14.00;99.90;;;;;;6212958;23;20500;-83
2022/11/08 11:11:57;;;;;;;4.25;1.42;;;13.80;99.90;;;;;;6212853;23;20013;-83
2022/11/08 11:14:23;;;;;;;5.15;1.63;;;13.80;99.90;;;;;;6212432;23;20453;-83
2022/11/08 11:17:16;;;;;;;3.58;1.33;;;13.70;99.90;;;;;;6185836;23;20019;-83
2022/11/08 11:19:53;;;;;;;5.25;1.20;;;13.70;99.90;;;;;;6185925;23;20044;-83
2022/11/08 11:22:30;;;;;;;2.97;1.30;;;14.00;99.90;;;;;;6212557;23;20056;-83
2022/11/08 11:25:01;;;;;;;6.78;1.92;;;13.80;99.90;;;;;;6213254;23;20099;-83
2022/11/08 11:27:32;;;;;;;4.35;1.40;;;14.30;99.90;;;;;;6185646;23;20017;-82
2022/11/08 11:30:20;;;;;;;7.47;1.40;;;13.80;99.90;;;;;;6212733;23;20063;-83
2022/11/08 11:33:05;;;;;;;3.83;1.35;;;13.90;99.90;;;;;;6211775;23;20008;-83
2022/11/08 11:36:06;;;;;;;5.35;1.58;;;14.00;99.90;;;;;;6212852;23;20028;-83
2022/11/08 11:39:00;;;;;;;4.18;1.30;;;14.00;99.90;;;;;;6214414;23;20017;-82
2022/11/08 11:41:36;;;;;;;5.45;1.70;;;14.20;99.90;;;;;;6213037;23;20017;-84
2022/11/08 11:44:12;;;;;;;3.67;1.40;;;14.20;99.90;;;;;;6212534;23;20025;-85
2022/11/08 11:47:02;;;;;;;7.00;1.65;;;14.20;99.90;;;;;;6185663;23;20096;-85
2022/11/08 11:49:29;;;;;;;3.55;1.17;;;14.20;99.90;;;;;;6212899;23;20315;-82
2022/11/08 11:51:56;;;;;;;4.32;1.60;;;14.20;99.90;;;;;;6160085;23;20020;-82
2022/11/08 11:54:32;;;;;;;6.13;1.33;;;14.20;99.90;;;;;;6184716;23;20052;-84
2022/11/08 11:57:04;;;;;;;3.63;1.30;;;14.30;99.90;;;;;;6184691;23;20024;-82
2022/11/08 11:59:47;;;;;;;3.28;1.20;;;14.40;99.90;;;;;;6159990;23;20337;-82
2022/11/08 12:02:33;;;;;;;5.22;1.20;;;14.40;99.90;;;;;;6184245;23;20024;-82
2022/11/08 12:05:28;;;;;;;4.18;1.35;;;14.40;99.90;;;;;;6159913;23;20016;-81
2022/11/08 12:08:31;;;;;;;5.53;1.50;;;14.50;99.90;;;;;;6161683;23;20402;-82
2022/11/08 12:11:37;;;;;;;5.22;1.50;;;14.40;99.90;;;;;;6162785;23;20023;-82
2022/11/08 12:14:07;;;;;;;5.30;1.33;;;14.60;99.90;;;;;;6187481;23;20016;-82
2022/11/08 12:16:33;;;;;;;6.45;1.50;;;14.60;99.90;;;;;;6186716;23;20024;-82
2022/11/08 12:19:24;;;;;;;4.75;1.33;;;14.70;99.90;;;;;;6187411;23;20016;-82
2022/11/08 12:21:59;;;;;;;7.85;1.27;;;14.70;99.90;;;;;;6187289;23;20066;-82
2022/11/08 12:24:34;;;;;;;5.38;1.70;;;14.90;99.90;;;;;;6214270;23;20008;-82
2022/11/08 12:27:15;;;;;;;4.65;1.60;;;14.80;99.90;;;;;;6161956;23;20016;-82
2022/11/08 12:29:47;;;;;;;7.00;1.75;;;14.70;99.90;;;;;;6186433;23;20345;-82
2022/11/08 12:32:26;;;;;;;4.97;1.35;;;14.80;99.90;;;;;;6212971;23;20027;-83
2022/11/08 12:35:11;;;;;;;5.05;1.20;;;14.60;99.90;;;;;;6186182;23;20021;-82
2022/11/08 12:37:43;;;;;;;6.68;1.88;;;14.60;99.90;;;;;;6187486;23;20005;-83
2022/11/08 12:40:53;;;;;;;3.40;1.27;;;14.60;99.90;;;;;;6187185;23;20084;-83
2022/11/08 12:43:28;;;;;;;4.07;1.38;;;14.60;99.90;;;;;;6180613;23;20051;-84
2022/11/08 12:46:09;;;;;;;;;;;14.60;99.90;;;;;;6187123;23;20524;-83
2022/11/08 12:48:50;;;;;;;4.32;1.35;;;14.60;99.90;;;;;;6211391;23;20339;-83
2022/11/08 12:51:45;;;;;;;7.15;1.42;;;14.60;99.90;;;;;;6215254;23;20017;-84
2022/11/08 12:54:18;;;;;;;3.22;1.20;;;14.60;99.90;;;;;;6217702;23;20016;-85
2022/11/08 12:56:47;;;;;;;3.08;1.15;;;14.60;99.90;;;;;;6191639;23;20507;-85
2022/11/08 12:59:33;;;;;;;6.70;1.48;;;14.60;99.90;;;;;;6191122;23;20012;-84
2022/11/08 13:02:01;;;;;;;5.88;1.20;;;14.70;99.90;;;;;;6217254;23;20016;-84
2022/11/08 13:05:03;;;;;;;5.20;1.60;;;14.70;99.90;;;;;;6216928;23;20337;-83
2022/11/08 13:07:40;;;;;;;6.22;1.50;;;14.60;99.90;;;;;;6190978;23;20020;-84
2022/11/08 13:10:22;;;;;;;3.42;1.20;;;14.70;99.90;;;;;;6216890;23;20015;-84
2022/11/08 13:13:03;;;;;;;3.38;1.23;;;14.70;99.90;;;;;;6189113;23;20325;-84
2022/11/08 13:15:28;;;;;;;4.97;1.40;;;14.70;99.90;;;;;;6216566;23;20016;-84
2022/11/08 13:18:06;;;;;;;3.30;1.27;;;14.80;99.90;;;;;;6189444;23;20012;-84
2022/11/08 13:20:47;;;;;;;7.65;1.45;;;14.70;99.90;;;;;;6190192;23;20020;-83